createdAt,value
2018-06-12T00:01:43.584Z,16.45
2018-06-12T00:02:43.585Z,16.42
2018-06-12T00:04:36.516Z,16.42
2018-06-12T00:05:36.539Z,16.42
2018-06-12T00:07:29.486Z,16.42
2018-06-12T00:08:29.492Z,16.46
2018-06-12T00:10:22.421Z,16.42
2018-06-12T00:11:22.445Z,16.46
2018-06-12T00:13:15.399Z,16.46
2018-06-12T00:14:15.400Z,16.53
2018-06-12T00:16:08.352Z,16.42
2018-06-12T00:17:08.357Z,16.42
2018-06-12T00:19:01.286Z,16.41
2018-06-12T00:20:01.312Z,16.39
2018-06-12T00:21:54.259Z,16.14
2018-06-12T00:22:54.265Z,16.23
2018-06-12T00:24:47.704Z,16.25
2018-06-12T00:25:47.727Z,16.23
2018-06-12T00:27:40.680Z,16.20
2018-06-12T00:28:40.681Z,16.14
2018-06-12T00:30:33.611Z,16.17
2018-06-12T00:31:33.636Z,16.20
2018-06-12T00:33:26.583Z,16.14
2018-06-12T00:34:26.589Z,16.11
2018-06-12T00:36:19.522Z,16.23
2018-06-12T00:37:19.543Z,16.15
2018-06-12T00:39:12.518Z,16.21
2018-06-12T00:40:12.499Z,16.25
2018-06-12T00:42:05.451Z,16.17
2018-06-12T00:43:05.453Z,16.17
2018-06-12T00:44:58.386Z,16.21
2018-06-12T00:45:58.408Z,16.20
2018-06-12T00:47:51.357Z,16.20
2018-06-12T00:48:51.361Z,16.09
2018-06-12T00:50:44.293Z,16.20
2018-06-12T00:51:44.314Z,16.21
2018-06-12T00:53:38.806Z,16.28
2018-06-12T00:54:38.807Z,16.34
2018-06-12T00:56:31.736Z,16.38
2018-06-12T00:57:31.758Z,16.42
2018-06-12T00:59:24.717Z,16.48
2018-06-12T01:00:24.713Z,16.53
2018-06-12T01:02:17.645Z,16.48
2018-06-12T01:03:17.655Z,16.45
2018-06-12T01:05:10.598Z,16.45
2018-06-12T01:06:10.621Z,16.46
2018-06-12T01:08:04.046Z,16.28
2018-06-12T01:09:04.055Z,16.28
2018-06-12T01:10:57.019Z,16.30
2018-06-12T01:11:57.040Z,16.35
2018-06-12T01:13:49.990Z,16.31
2018-06-12T01:14:49.995Z,16.31
2018-06-12T01:16:42.927Z,16.33
2018-06-12T01:17:42.949Z,16.21
2018-06-12T01:19:35.898Z,16.21
2018-06-12T01:20:35.904Z,16.08
2018-06-12T01:22:28.835Z,16.20
2018-06-12T01:23:28.858Z,16.17
2018-06-12T01:25:21.805Z,16.20
2018-06-12T01:26:21.810Z,16.12
2018-06-12T01:28:14.762Z,16.09
2018-06-12T01:29:14.765Z,16.15
2018-06-12T01:31:07.697Z,16.05
2018-06-12T01:32:07.718Z,16.09
2018-06-12T01:34:00.649Z,16.11
2018-06-12T01:35:00.653Z,16.08
2018-06-12T01:36:53.604Z,16.04
2018-06-12T01:37:53.628Z,16.02
2018-06-12T01:39:46.579Z,16.05
2018-06-12T01:40:46.584Z,16.08
2018-06-12T01:42:39.517Z,16.05
2018-06-12T01:43:39.537Z,16.11
2018-06-12T01:45:32.486Z,15.97
2018-06-12T01:46:32.493Z,15.87
2018-06-12T01:48:25.459Z,15.93
2018-06-12T01:49:25.444Z,16.00
2018-06-12T01:51:18.886Z,15.96
2018-06-12T01:52:18.912Z,15.87
2018-06-12T01:54:11.864Z,15.87
2018-06-12T01:55:11.864Z,15.90
2018-06-12T01:57:04.796Z,15.93
2018-06-12T01:58:04.819Z,15.89
2018-06-12T01:59:57.769Z,15.90
2018-06-12T02:00:57.772Z,15.78
2018-06-12T02:02:50.703Z,16.00
2018-06-12T02:03:50.727Z,15.94
2018-06-12T02:05:43.677Z,15.96
2018-06-12T02:06:43.681Z,16.12
2018-06-12T02:08:36.610Z,16.07
2018-06-12T02:09:36.636Z,16.11
2018-06-12T02:11:29.587Z,16.12
2018-06-12T02:12:29.594Z,16.02
2018-06-12T02:14:22.554Z,16.12
2018-06-12T02:15:22.544Z,16.14
2018-06-12T02:17:15.477Z,16.24
2018-06-12T02:18:15.499Z,16.17
2018-06-12T02:20:08.447Z,16.20
2018-06-12T02:21:08.453Z,16.12
2018-06-12T02:23:01.384Z,16.14
2018-06-12T02:24:01.405Z,16.12
2018-06-12T02:25:54.356Z,16.09
2018-06-12T02:26:54.359Z,16.12
2018-06-12T02:28:47.292Z,16.12
2018-06-12T02:29:47.314Z,16.17
2018-06-12T02:31:40.265Z,16.09
2018-06-12T02:32:40.271Z,16.12
2018-06-12T02:34:33.199Z,16.09
2018-06-12T02:35:33.221Z,16.07
2018-06-12T02:37:26.171Z,16.02
2018-06-12T02:38:26.176Z,16.00
2018-06-12T02:40:19.127Z,16.02
2018-06-12T02:41:19.133Z,16.04
2018-06-12T02:43:12.061Z,16.11
2018-06-12T02:44:12.086Z,16.07
2018-06-12T02:46:05.034Z,16.05
2018-06-12T02:47:05.037Z,16.11
2018-06-12T02:48:57.971Z,16.15
2018-06-12T02:49:57.995Z,16.15
2018-06-12T02:51:50.949Z,16.15
2018-06-12T02:52:50.947Z,16.23
2018-06-12T02:54:43.881Z,16.21
2018-06-12T02:55:43.902Z,16.23
2018-06-12T02:57:37.363Z,16.34
2018-06-12T02:58:37.369Z,16.30
2018-06-12T03:00:30.331Z,16.33
2018-06-12T03:01:30.323Z,16.43
2018-06-12T03:03:23.253Z,16.39
2018-06-12T03:04:23.278Z,16.42
2018-06-12T03:06:16.227Z,16.39
2018-06-12T03:07:16.254Z,16.45
2018-06-12T03:09:09.172Z,16.38
2018-06-12T03:10:09.184Z,16.45
2018-06-12T03:12:02.645Z,16.42
2018-06-12T03:13:02.654Z,16.46
2018-06-12T03:14:55.583Z,16.41
2018-06-12T03:15:55.611Z,16.41
2018-06-12T03:17:49.065Z,16.49
2018-06-12T03:18:49.069Z,16.35
2018-06-12T03:20:42.225Z,16.49
2018-06-12T03:21:42.129Z,16.43
2018-06-12T03:23:35.083Z,16.49
2018-06-12T03:24:35.083Z,16.38
2018-06-12T03:26:28.033Z,16.33
2018-06-12T03:27:28.036Z,16.34
2018-06-12T03:29:20.968Z,16.27
2018-06-12T03:30:20.996Z,16.25
2018-06-12T03:32:13.940Z,16.20
2018-06-12T03:33:13.947Z,16.25
2018-06-12T03:35:06.898Z,16.17
2018-06-12T03:36:06.899Z,16.24
2018-06-12T03:37:59.849Z,16.21
2018-06-12T03:38:59.852Z,16.21
2018-06-12T03:40:52.783Z,16.20
2018-06-12T03:41:52.808Z,16.20
2018-06-12T03:43:45.760Z,16.24
2018-06-12T03:44:45.761Z,16.12
2018-06-12T03:46:38.712Z,16.14
2018-06-12T03:47:38.714Z,16.14
2018-06-12T03:49:31.645Z,16.25
2018-06-12T03:50:31.676Z,16.09
2018-06-12T03:52:24.617Z,16.09
2018-06-12T03:53:24.621Z,16.04
2018-06-12T03:55:17.563Z,16.12
2018-06-12T03:56:17.578Z,16.21
2018-06-12T03:58:10.525Z,16.23
2018-06-12T03:59:10.530Z,16.24
2018-06-12T04:01:03.471Z,16.24
2018-06-12T04:02:03.488Z,16.33
2018-06-12T04:03:56.435Z,16.34
2018-06-12T04:04:56.438Z,16.34
2018-06-12T04:06:49.389Z,16.28
2018-06-12T04:07:49.397Z,16.30
2018-06-12T04:09:42.334Z,16.35
2018-06-12T04:10:42.349Z,16.33
2018-06-12T04:12:35.305Z,16.35
2018-06-12T04:13:35.302Z,16.30
2018-06-12T04:15:28.753Z,16.41
2018-06-12T04:16:28.768Z,16.48
2018-06-12T04:18:21.720Z,16.45
2018-06-12T04:19:21.723Z,16.50
2018-06-12T04:21:14.655Z,16.57
2018-06-12T04:22:14.677Z,16.46
2018-06-12T04:24:07.633Z,16.57
2018-06-12T04:25:07.633Z,16.57
2018-06-12T04:27:01.077Z,16.71
2018-06-12T04:28:01.097Z,16.66
2018-06-12T04:29:54.552Z,16.73
2018-06-12T04:30:54.051Z,16.78
2018-06-12T04:32:46.982Z,16.79
2018-06-12T04:33:47.005Z,16.76
2018-06-12T04:35:41.492Z,16.73
2018-06-12T04:36:41.495Z,16.81
2018-06-12T04:38:34.447Z,16.78
2018-06-12T04:39:34.452Z,16.85
2018-06-12T04:41:27.383Z,16.79
2018-06-12T04:42:27.404Z,16.79
2018-06-12T04:44:20.368Z,16.83
2018-06-12T04:45:20.358Z,16.91
2018-06-12T04:47:13.289Z,16.86
2018-06-12T04:48:13.312Z,16.89
2018-06-12T04:50:06.264Z,17.00
2018-06-12T04:51:06.271Z,17.06
2018-06-12T04:52:59.197Z,17.06
2018-06-12T04:53:59.220Z,17.12
2018-06-12T04:55:52.171Z,17.16
2018-06-12T04:56:52.175Z,17.22
2018-06-12T04:58:45.124Z,17.36
2018-06-12T04:59:45.130Z,17.40
2018-06-12T05:01:38.062Z,17.37
2018-06-12T05:02:38.085Z,17.43
2018-06-12T05:04:31.546Z,17.55
2018-06-12T05:05:31.548Z,17.52
2018-06-12T05:07:24.481Z,17.64
2018-06-12T05:08:24.503Z,17.68
2018-06-12T05:10:17.456Z,17.75
2018-06-12T05:11:17.461Z,17.79
2018-06-12T05:13:10.391Z,17.81
2018-06-12T05:14:10.418Z,17.89
2018-06-12T05:16:03.362Z,17.92
2018-06-12T05:17:03.368Z,18.03
2018-06-12T05:18:56.295Z,18.12
2018-06-12T05:19:56.355Z,18.14
2018-06-12T05:21:49.272Z,18.29
2018-06-12T05:22:49.276Z,18.18
2018-06-12T05:24:42.236Z,18.23
2018-06-12T05:25:42.231Z,18.35
2018-06-12T05:27:35.158Z,18.42
2018-06-12T05:28:35.184Z,18.50
2018-06-12T05:30:28.134Z,18.51
2018-06-12T05:31:28.138Z,18.55
2018-06-12T05:33:21.067Z,18.47
2018-06-12T05:34:21.091Z,18.41
2018-06-12T05:36:14.042Z,18.44
2018-06-12T05:37:14.053Z,18.50
2018-06-12T05:39:06.974Z,18.54
2018-06-12T05:40:07.000Z,18.54
2018-06-12T05:41:59.950Z,18.58
2018-06-12T05:42:59.956Z,18.47
2018-06-12T05:44:52.891Z,18.55
2018-06-12T05:45:52.909Z,18.52
2018-06-12T05:47:45.857Z,18.52
2018-06-12T05:48:45.865Z,18.57
2018-06-12T05:50:38.808Z,18.62
2018-06-12T05:51:38.829Z,18.55
2018-06-12T05:53:32.259Z,18.55
2018-06-12T05:54:32.287Z,18.45
2018-06-12T05:56:25.231Z,18.44
2018-06-12T05:57:25.250Z,18.42
2018-06-12T05:59:19.704Z,18.50
2018-06-12T06:00:19.733Z,18.44
2018-06-12T06:02:12.680Z,18.51
2018-06-12T06:03:12.686Z,18.57
2018-06-12T06:05:05.713Z,18.52
2018-06-12T06:06:05.741Z,18.54
2018-06-12T06:07:58.735Z,18.57
2018-06-12T06:08:58.691Z,18.70
2018-06-12T06:10:51.638Z,18.82
2018-06-12T06:11:51.650Z,18.84
2018-06-12T06:13:44.604Z,18.94
2018-06-12T06:14:44.610Z,19.00
2018-06-12T06:16:37.659Z,18.99
2018-06-12T06:17:37.661Z,19.11
2018-06-12T06:19:30.590Z,19.08
2018-06-12T06:20:30.616Z,19.19
2018-06-12T06:22:23.665Z,19.46
2018-06-12T06:23:23.672Z,19.69
2018-06-12T06:25:16.714Z,19.96
2018-06-12T06:26:16.728Z,20.14
2018-06-12T06:28:09.782Z,20.58
2018-06-12T06:29:09.786Z,20.87
2018-06-12T06:31:03.222Z,21.46
2018-06-12T06:32:03.252Z,21.56
2018-06-12T06:33:56.194Z,21.67
2018-06-12T06:34:56.202Z,21.79
2018-06-12T06:36:49.226Z,21.77
2018-06-12T06:37:49.222Z,21.75
2018-06-12T06:39:42.184Z,21.53
2018-06-12T06:40:42.213Z,21.22
2018-06-12T06:42:35.197Z,21.01
2018-06-12T06:43:35.169Z,21.01
2018-06-12T06:45:28.092Z,20.95
2018-06-12T06:46:28.131Z,20.87
2018-06-12T06:48:21.102Z,20.41
2018-06-12T06:49:21.075Z,20.24
2018-06-12T06:51:14.628Z,20.13
2018-06-12T06:52:14.665Z,19.99
2018-06-12T06:54:08.088Z,19.96
2018-06-12T06:55:08.097Z,20.05
2018-06-12T06:57:01.021Z,19.91
2018-06-12T06:58:01.051Z,19.92
2018-06-12T06:59:53.999Z,19.96
2018-06-12T07:00:54.005Z,20.05
2018-06-12T07:02:46.953Z,20.06
2018-06-12T07:03:46.960Z,20.17
2018-06-12T07:05:39.884Z,19.88
2018-06-12T07:06:39.911Z,19.87
2018-06-12T07:08:32.858Z,19.98
2018-06-12T07:09:32.864Z,20.02
2018-06-12T07:11:25.789Z,20.11
2018-06-12T07:12:25.816Z,20.13
2018-06-12T07:14:18.756Z,20.26
2018-06-12T07:15:18.768Z,20.23
2018-06-12T07:17:11.689Z,20.13
2018-06-12T07:18:11.712Z,20.06
2018-06-12T07:20:04.659Z,20.01
2018-06-12T07:21:04.666Z,19.96
2018-06-12T07:22:57.593Z,19.86
2018-06-12T07:23:57.617Z,19.80
2018-06-12T07:25:50.567Z,19.78
2018-06-12T07:26:50.573Z,19.81
2018-06-12T07:28:43.521Z,19.87
2018-06-12T07:29:43.525Z,19.88
2018-06-12T07:31:36.450Z,19.94
2018-06-12T07:32:36.475Z,19.98
2018-06-12T07:34:29.926Z,19.78
2018-06-12T07:35:29.934Z,19.74
2018-06-12T07:37:22.854Z,19.68
2018-06-12T07:38:22.883Z,19.71
2018-06-12T07:40:15.826Z,19.69
2018-06-12T07:41:15.834Z,19.74
2018-06-12T07:43:08.758Z,19.68
2018-06-12T07:44:08.786Z,19.66
2018-06-12T07:46:01.731Z,19.61
2018-06-12T07:47:01.738Z,19.66
2018-06-12T07:48:55.170Z,19.80
2018-06-12T07:49:55.181Z,19.86
2018-06-12T07:51:48.098Z,19.95
2018-06-12T07:52:48.124Z,19.98
2018-06-12T07:54:41.073Z,20.16
2018-06-12T07:55:41.072Z,20.16
2018-06-12T07:57:34.101Z,20.23
2018-06-12T07:58:34.129Z,20.24
2018-06-12T08:00:27.110Z,20.31
2018-06-12T08:01:27.082Z,20.14
2018-06-12T08:03:20.009Z,20.18
2018-06-12T08:04:20.037Z,20.17
2018-06-12T08:06:13.082Z,20.26
2018-06-12T08:07:13.093Z,20.36
2018-06-12T08:09:06.559Z,20.41
2018-06-12T08:10:06.557Z,20.55
2018-06-12T08:11:59.490Z,20.76
2018-06-12T08:12:59.617Z,20.73
2018-06-12T08:14:52.969Z,20.85
2018-06-12T08:15:52.978Z,20.70
2018-06-12T08:17:46.008Z,20.69
2018-06-12T08:18:46.035Z,20.72
2018-06-12T08:20:39.084Z,20.74
2018-06-12T08:21:39.093Z,20.80
2018-06-12T08:23:32.120Z,20.73
2018-06-12T08:24:32.148Z,20.87
2018-06-12T08:26:25.095Z,20.99
2018-06-12T08:27:25.105Z,20.97
2018-06-12T08:29:18.134Z,21.21
2018-06-12T08:30:18.271Z,21.13
2018-06-12T08:32:11.212Z,21.16
2018-06-12T08:33:11.225Z,21.31
2018-06-12T08:35:04.274Z,21.24
2018-06-12T08:36:04.276Z,21.46
2018-06-12T08:37:57.712Z,21.32
2018-06-12T08:38:57.742Z,21.29
2018-06-12T08:40:50.792Z,21.03
2018-06-12T08:41:50.798Z,21.06
2018-06-12T08:43:43.824Z,21.17
2018-06-12T08:44:43.850Z,21.22
2018-06-12T08:46:36.899Z,21.32
2018-06-12T08:47:36.908Z,21.25
2018-06-12T08:49:29.939Z,21.21
2018-06-12T08:50:29.968Z,21.31
2018-06-12T08:52:23.014Z,21.16
2018-06-12T08:53:23.023Z,21.17
2018-06-12T08:55:16.051Z,20.85
2018-06-12T08:56:16.078Z,20.69
2018-06-12T08:58:09.125Z,20.69
2018-06-12T08:59:09.133Z,20.76
2018-06-12T09:01:02.182Z,20.84
2018-06-12T09:02:02.191Z,20.84
2018-06-12T09:03:55.219Z,20.73
2018-06-12T09:04:55.247Z,20.76
2018-06-12T09:06:48.296Z,20.73
2018-06-12T09:07:48.306Z,20.76
2018-06-12T09:09:41.335Z,20.59
2018-06-12T09:10:41.358Z,20.62
2018-06-12T09:12:34.408Z,20.64
2018-06-12T09:13:34.418Z,20.57
2018-06-12T09:15:27.446Z,20.43
2018-06-12T09:16:27.476Z,20.52
2018-06-12T09:18:20.521Z,20.47
2018-06-12T09:19:20.529Z,20.43
2018-06-12T09:21:13.556Z,20.52
2018-06-12T09:22:13.587Z,20.54
2018-06-12T09:24:06.633Z,20.47
2018-06-12T09:25:06.659Z,20.52
2018-06-12T09:26:59.592Z,20.33
2018-06-12T09:27:59.596Z,20.39
2018-06-12T09:29:53.036Z,20.31
2018-06-12T09:30:53.063Z,20.29
2018-06-12T09:32:46.109Z,20.36
2018-06-12T09:33:46.119Z,20.50
2018-06-12T09:35:39.147Z,20.76
2018-06-12T09:36:39.177Z,20.91
2018-06-12T09:38:32.633Z,21.13
2018-06-12T09:39:32.640Z,21.16
2018-06-12T09:41:25.672Z,21.25
2018-06-12T09:42:25.741Z,21.38
2018-06-12T09:44:18.746Z,21.65
2018-06-12T09:45:18.754Z,21.74
2018-06-12T09:47:11.783Z,21.80
2018-06-12T09:48:11.810Z,21.79
2018-06-12T09:50:04.859Z,21.77
2018-06-12T09:51:04.869Z,21.86
2018-06-12T09:52:57.915Z,21.98
2018-06-12T09:53:57.925Z,22.15
2018-06-12T09:55:50.952Z,22.20
2018-06-12T09:56:51.060Z,22.14
2018-06-12T09:58:44.027Z,22.02
2018-06-12T09:59:44.042Z,22.02
2018-06-12T10:01:37.069Z,21.79
2018-06-12T10:02:37.101Z,21.80
2018-06-12T10:04:30.042Z,21.77
2018-06-12T10:05:30.050Z,21.79
2018-06-12T10:07:22.973Z,22.02
2018-06-12T10:08:23.007Z,22.22
2018-06-12T10:10:15.946Z,22.35
2018-06-12T10:11:15.955Z,22.25
2018-06-12T10:13:08.903Z,22.28
2018-06-12T10:14:08.908Z,22.22
2018-06-12T10:16:01.832Z,22.31
2018-06-12T10:17:01.862Z,22.27
2018-06-12T10:18:55.306Z,22.28
2018-06-12T10:19:55.308Z,22.24
2018-06-12T10:21:48.232Z,22.35
2018-06-12T10:22:48.260Z,22.43
2018-06-12T10:24:41.210Z,22.52
2018-06-12T10:25:41.213Z,22.70
2018-06-12T10:27:34.136Z,23.07
2018-06-12T10:28:34.174Z,22.97
2018-06-12T10:30:27.112Z,22.77
2018-06-12T10:31:27.120Z,22.64
2018-06-12T10:33:20.047Z,22.47
2018-06-12T10:34:20.072Z,22.47
2018-06-12T10:36:13.020Z,22.64
2018-06-12T10:37:13.060Z,22.67
2018-06-12T10:39:05.962Z,22.94
2018-06-12T10:40:05.976Z,22.92
2018-06-12T10:41:58.902Z,22.80
2018-06-12T10:42:58.926Z,22.80
2018-06-12T10:44:51.878Z,22.75
2018-06-12T10:45:51.887Z,22.90
2018-06-12T10:47:44.811Z,22.90
2018-06-12T10:48:44.839Z,23.17
2018-06-12T10:50:37.823Z,23.16
2018-06-12T10:51:37.830Z,23.23
2018-06-12T10:53:30.858Z,23.22
2018-06-12T10:54:30.886Z,23.12
2018-06-12T10:56:23.940Z,23.20
2018-06-12T10:57:23.943Z,23.25
2018-06-12T10:59:16.993Z,23.04
2018-06-12T11:00:17.005Z,22.94
2018-06-12T11:02:09.935Z,22.86
2018-06-12T11:03:09.965Z,22.86
2018-06-12T11:05:03.031Z,22.91
2018-06-12T11:06:02.922Z,22.97
2018-06-12T11:07:55.940Z,22.88
2018-06-12T11:08:55.968Z,22.97
2018-06-12T11:10:48.947Z,23.05
2018-06-12T11:11:48.942Z,23.13
2018-06-12T11:13:41.945Z,23.23
2018-06-12T11:14:41.979Z,23.47
2018-06-12T11:16:35.433Z,23.58
2018-06-12T11:17:35.443Z,23.51
2018-06-12T11:19:28.376Z,23.72
2018-06-12T11:20:28.413Z,23.87
2018-06-12T11:22:21.357Z,23.97
2018-06-12T11:23:21.369Z,24.06
2018-06-12T11:25:14.414Z,23.87
2018-06-12T11:26:14.325Z,23.70
2018-06-12T11:28:07.258Z,23.63
2018-06-12T11:29:08.117Z,23.60
2018-06-12T11:31:00.239Z,23.58
2018-06-12T11:32:00.248Z,23.33
2018-06-12T11:33:53.175Z,23.63
2018-06-12T11:34:53.205Z,23.61
2018-06-12T11:36:46.678Z,23.70
2018-06-12T11:37:46.680Z,23.91
2018-06-12T11:39:39.609Z,23.61
2018-06-12T11:40:39.645Z,23.70
2018-06-12T11:42:32.833Z,23.72
2018-06-12T11:43:32.605Z,23.79
2018-06-12T11:45:25.531Z,23.95
2018-06-12T11:46:25.566Z,24.09
2018-06-12T11:48:19.502Z,24.21
2018-06-12T11:49:19.514Z,24.24
2018-06-12T11:51:12.459Z,24.12
2018-06-12T11:52:12.471Z,24.27
2018-06-12T11:54:05.615Z,24.37
2018-06-12T11:55:05.747Z,24.42
2018-06-12T11:56:58.699Z,24.34
2018-06-12T11:57:58.715Z,24.40
2018-06-12T11:59:51.876Z,24.39
2018-06-12T12:00:51.907Z,24.35
2018-06-12T12:02:44.855Z,24.12
2018-06-12T12:03:44.869Z,24.00
2018-06-12T12:05:37.799Z,24.08
2018-06-12T12:06:37.836Z,23.97
2018-06-12T12:08:30.775Z,23.97
2018-06-12T12:09:30.787Z,24.06
2018-06-12T12:11:23.720Z,24.15
2018-06-12T12:12:23.769Z,24.08
2018-06-12T12:14:16.699Z,24.00
2018-06-12T12:15:16.710Z,23.91
2018-06-12T12:17:09.661Z,23.60
2018-06-12T12:18:09.668Z,23.70
2018-06-12T12:20:02.602Z,23.79
2018-06-12T12:21:02.623Z,23.90
2018-06-12T12:22:55.574Z,24.18
2018-06-12T12:23:55.583Z,24.39
2018-06-12T12:25:49.004Z,24.37
2018-06-12T12:26:49.031Z,24.40
2018-06-12T12:28:41.985Z,24.24
2018-06-12T12:29:41.988Z,24.25
2018-06-12T12:31:35.412Z,24.25
2018-06-12T12:32:35.441Z,24.24
2018-06-12T12:34:28.408Z,24.00
2018-06-12T12:35:28.486Z,24.03
2018-06-12T12:37:21.421Z,23.95
2018-06-12T12:38:21.436Z,23.98
2018-06-12T12:40:14.491Z,24.15
2018-06-12T12:41:14.625Z,24.15
2018-06-12T12:43:07.537Z,24.10
2018-06-12T12:44:07.548Z,24.15
2018-06-12T12:46:00.653Z,24.25
2018-06-12T12:47:00.602Z,24.02
2018-06-12T12:48:53.648Z,24.00
2018-06-12T12:49:53.661Z,23.87
2018-06-12T12:51:46.586Z,23.78
2018-06-12T12:52:46.614Z,23.79
2018-06-12T12:54:39.569Z,23.60
2018-06-12T12:55:39.583Z,23.55
2018-06-12T12:57:32.505Z,23.50
2018-06-12T12:58:32.537Z,23.48
2018-06-12T13:00:25.485Z,23.60
2018-06-12T13:01:25.516Z,23.57
2018-06-12T13:03:18.445Z,23.61
2018-06-12T13:04:18.453Z,23.58
2018-06-12T13:06:11.384Z,23.39
2018-06-12T13:07:11.412Z,23.43
2018-06-12T13:09:04.355Z,23.36
2018-06-12T13:10:04.364Z,23.28
2018-06-12T13:11:57.291Z,23.16
2018-06-12T13:12:57.321Z,23.23
2018-06-12T13:14:50.263Z,23.38
2018-06-12T13:15:50.274Z,23.48
2018-06-12T13:17:43.200Z,23.53
2018-06-12T13:18:43.230Z,23.55
2018-06-12T13:20:36.207Z,23.54
2018-06-12T13:21:36.199Z,23.54
2018-06-12T13:23:29.138Z,23.65
2018-06-12T13:24:29.147Z,23.66
2018-06-12T13:26:22.081Z,23.65
2018-06-12T13:27:22.107Z,23.70
2018-06-12T13:29:15.056Z,23.53
2018-06-12T13:30:15.066Z,23.58
2018-06-12T13:32:07.990Z,23.51
2018-06-12T13:33:08.019Z,23.51
2018-06-12T13:35:00.970Z,23.48
2018-06-12T13:36:00.974Z,23.20
2018-06-12T13:37:53.908Z,23.25
2018-06-12T13:38:53.933Z,23.42
2018-06-12T13:40:46.909Z,23.42
2018-06-12T13:41:46.886Z,23.48
2018-06-12T13:43:39.811Z,23.48
2018-06-12T13:44:39.840Z,23.36
2018-06-12T13:46:32.804Z,23.43
2018-06-12T13:47:32.795Z,23.48
2018-06-12T13:49:25.792Z,23.50
2018-06-12T13:50:25.800Z,23.47
2018-06-12T13:52:18.734Z,23.33
2018-06-12T13:53:18.767Z,23.20
2018-06-12T13:55:11.721Z,23.04
2018-06-12T13:56:11.728Z,22.92
2018-06-12T13:58:04.658Z,22.82
2018-06-12T13:59:04.688Z,22.76
2018-06-12T14:00:57.707Z,22.51
2018-06-12T14:01:57.718Z,22.49
2018-06-12T14:03:51.155Z,22.35
2018-06-12T14:04:51.186Z,22.45
2018-06-12T14:06:44.231Z,22.33
2018-06-12T14:07:44.240Z,22.27
2018-06-12T14:09:37.289Z,22.25
2018-06-12T14:10:37.299Z,22.33
2018-06-12T14:12:30.342Z,22.33
2018-06-12T14:13:30.402Z,22.22
2018-06-12T14:15:23.412Z,22.27
2018-06-12T14:16:23.412Z,22.30
2018-06-12T14:18:16.444Z,22.27
2018-06-12T14:19:16.469Z,22.21
2018-06-12T14:21:09.590Z,22.18
2018-06-12T14:22:09.555Z,22.24
2018-06-12T14:24:03.538Z,22.28
2018-06-12T14:25:02.629Z,22.22
2018-06-12T14:26:55.626Z,22.20
2018-06-12T14:27:55.646Z,22.17
2018-06-12T14:29:50.119Z,22.14
2018-06-12T14:30:50.130Z,22.02
2018-06-12T14:32:43.172Z,21.96
2018-06-12T14:33:43.181Z,21.92
2018-06-12T14:35:36.207Z,21.79
2018-06-12T14:36:36.236Z,21.74
2018-06-12T14:38:29.285Z,21.69
2018-06-12T14:39:29.289Z,21.69
2018-06-12T14:41:22.241Z,21.80
2018-06-12T14:42:22.250Z,21.74
2018-06-12T14:44:15.283Z,21.74
2018-06-12T14:45:15.311Z,21.74
2018-06-12T14:47:08.381Z,21.69
2018-06-12T14:48:08.399Z,21.58
2018-06-12T14:50:01.287Z,21.56
2018-06-12T14:51:01.316Z,21.52
2018-06-12T14:52:54.361Z,21.54
2018-06-12T14:53:54.372Z,21.58
2018-06-12T14:55:47.898Z,21.31
2018-06-12T14:56:47.426Z,21.27
2018-06-12T14:58:40.551Z,21.01
2018-06-12T14:59:40.510Z,20.85
2018-06-12T15:01:33.432Z,20.80
2018-06-12T15:02:33.439Z,20.89
2018-06-12T15:04:26.466Z,20.85
2018-06-12T15:05:26.569Z,20.84
2018-06-12T15:07:19.544Z,20.70
2018-06-12T15:08:19.549Z,20.70
2018-06-12T15:10:12.475Z,20.57
2018-06-12T15:11:12.507Z,20.51
2018-06-12T15:13:05.448Z,20.50
2018-06-12T15:14:05.455Z,20.50
2018-06-12T15:15:58.389Z,20.54
2018-06-12T15:16:58.410Z,20.54
2018-06-12T15:18:51.374Z,20.31
2018-06-12T15:19:51.367Z,20.20
2018-06-12T15:21:44.313Z,20.11
2018-06-12T15:22:44.320Z,19.99
2018-06-12T15:24:37.757Z,19.96
2018-06-12T15:25:37.787Z,20.01
2018-06-12T15:27:30.730Z,20.16
2018-06-12T15:28:30.817Z,20.18
2018-06-12T15:30:23.664Z,20.16
2018-06-12T15:31:23.691Z,20.31
2018-06-12T15:33:16.646Z,20.51
2018-06-12T15:34:16.651Z,20.72
2018-06-12T15:36:09.679Z,20.85
2018-06-12T15:37:09.706Z,20.85
2018-06-12T15:39:02.861Z,21.03
2018-06-12T15:40:02.834Z,21.19
2018-06-12T15:41:55.792Z,21.28
2018-06-12T15:42:55.816Z,21.24
2018-06-12T15:44:48.877Z,21.21
2018-06-12T15:45:48.950Z,21.24
2018-06-12T15:47:41.922Z,21.34
2018-06-12T15:48:41.934Z,21.31
2018-06-12T15:50:34.967Z,21.28
2018-06-12T15:51:34.987Z,21.32
2018-06-12T15:53:28.035Z,21.34
2018-06-12T15:54:28.042Z,21.29
2018-06-12T15:56:21.075Z,21.29
2018-06-12T15:57:21.101Z,21.27
2018-06-12T15:59:14.150Z,21.34
2018-06-12T16:00:14.157Z,21.43
2018-06-12T16:02:07.186Z,21.27
2018-06-12T16:03:07.213Z,21.25
2018-06-12T16:05:00.260Z,21.29
2018-06-12T16:06:00.269Z,21.38
2018-06-12T16:07:53.217Z,21.58
2018-06-12T16:08:53.224Z,21.64
2018-06-12T16:10:46.253Z,21.62
2018-06-12T16:11:46.280Z,21.52
2018-06-12T16:13:39.330Z,21.42
2018-06-12T16:14:39.338Z,21.49
2018-06-12T16:16:32.263Z,21.50
2018-06-12T16:17:32.293Z,21.52
2018-06-12T16:19:25.344Z,21.56
2018-06-12T16:20:25.425Z,21.74
2018-06-12T16:22:18.789Z,21.84
2018-06-12T16:23:18.817Z,21.98
2018-06-12T16:25:11.869Z,21.99
2018-06-12T16:26:11.930Z,22.02
2018-06-12T16:28:04.902Z,21.94
2018-06-12T16:29:04.928Z,21.83
2018-06-12T16:30:57.874Z,21.68
2018-06-12T16:31:57.881Z,21.59
2018-06-12T16:33:50.929Z,21.62
2018-06-12T16:34:50.957Z,21.56
2018-06-12T16:36:44.396Z,21.58
2018-06-12T16:37:44.404Z,21.46
2018-06-12T16:39:37.452Z,21.53
2018-06-12T16:40:37.459Z,21.58
2018-06-12T16:42:30.490Z,21.25
2018-06-12T16:43:30.517Z,21.29
2018-06-12T16:45:23.567Z,21.50
2018-06-12T16:46:23.590Z,21.54
2018-06-12T16:48:16.604Z,21.77
2018-06-12T16:49:16.633Z,21.83
2018-06-12T16:51:09.675Z,21.98
2018-06-12T16:52:09.696Z,21.94
2018-06-12T16:54:02.716Z,21.98
2018-06-12T16:55:02.799Z,21.99
2018-06-12T16:56:55.800Z,22.00
2018-06-12T16:57:55.802Z,21.98
2018-06-12T16:59:48.846Z,21.98
2018-06-12T17:00:48.857Z,21.92
2018-06-12T17:02:41.886Z,21.79
2018-06-12T17:03:41.914Z,21.59
2018-06-12T17:05:34.964Z,21.62
2018-06-12T17:06:34.973Z,21.64
2018-06-12T17:08:28.003Z,21.34
2018-06-12T17:09:28.026Z,21.34
2018-06-12T17:11:21.483Z,21.27
2018-06-12T17:12:21.491Z,21.25
2018-06-12T17:14:14.519Z,21.32
2018-06-12T17:15:14.626Z,21.32
2018-06-12T17:17:08.005Z,21.28
2018-06-12T17:18:08.094Z,21.22
2018-06-12T17:20:01.071Z,21.16
2018-06-12T17:21:01.070Z,21.21
2018-06-12T17:22:53.997Z,21.16
2018-06-12T17:23:54.026Z,21.22
2018-06-12T17:25:47.070Z,21.28
2018-06-12T17:26:47.083Z,21.24
2018-06-12T17:28:40.022Z,21.22
2018-06-12T17:29:40.035Z,21.28
2018-06-12T17:31:33.085Z,21.17
2018-06-12T17:32:33.092Z,21.22
2018-06-12T17:34:26.120Z,21.16
2018-06-12T17:35:26.146Z,21.10
2018-06-12T17:37:19.198Z,20.84
2018-06-12T17:38:19.206Z,20.79
2018-06-12T17:40:12.238Z,20.64
2018-06-12T17:41:12.260Z,20.58
2018-06-12T17:43:10.226Z,20.59
2018-06-12T17:44:10.237Z,20.57
2018-06-12T17:46:03.265Z,20.54
2018-06-12T17:47:03.288Z,20.54
2018-06-12T17:48:56.337Z,20.50
2018-06-12T17:49:56.347Z,20.39
2018-06-12T17:51:49.292Z,20.17
2018-06-12T17:52:49.299Z,20.24
2018-06-12T17:54:42.250Z,20.01
2018-06-12T17:55:42.253Z,20.01
2018-06-12T17:57:35.199Z,19.92
2018-06-12T17:58:35.203Z,19.88
2018-06-12T18:00:28.135Z,19.83
2018-06-12T18:01:28.157Z,19.94
2018-06-12T18:03:21.107Z,20.01
2018-06-12T18:04:21.116Z,19.98
2018-06-12T18:06:14.555Z,19.96
2018-06-12T18:07:14.579Z,19.94
2018-06-12T18:09:07.527Z,19.88
2018-06-12T18:10:07.534Z,19.80
2018-06-12T18:12:00.492Z,19.83
2018-06-12T18:13:00.490Z,19.83
2018-06-12T18:14:53.417Z,19.80
2018-06-12T18:15:53.441Z,19.86
2018-06-12T18:17:46.388Z,19.86
2018-06-12T18:18:46.423Z,19.86
2018-06-12T18:20:39.837Z,19.83
2018-06-12T18:21:39.863Z,19.81
2018-06-12T18:23:32.914Z,19.87
2018-06-12T18:24:32.930Z,19.76
2018-06-12T18:26:25.955Z,19.81
2018-06-12T18:27:25.978Z,19.76
2018-06-12T18:29:20.026Z,19.55
2018-06-12T18:30:20.034Z,19.55
2018-06-12T18:32:12.983Z,19.54
2018-06-12T18:33:13.009Z,19.41
2018-06-12T18:35:05.954Z,19.31